This is the latest recevied weather packets stored in our database for station/object CE1RLP-31. If no packets are shown the sender has not sent any weather packets the latest 10 day(s).
| Time | Temp. | Humidity | Pressure | Rain* | Wind** | Luminosity | Snow |
|---|---|---|---|---|---|---|---|
| 1777554452 | 9.44° C | 9% | 1097.6 hPa | - | - | - | - |
| 1777549054 | 6.11° C | 9% | 1096.8 hPa | - | - | - | - |
| 1777548151 | 5.56° C | 9% | 1096.7 hPa | - | - | - | - |
| 1777547251 | 5.56° C | 9% | 1096.6 hPa | - | - | - | - |
| 1777545451 | 5° C | 8% | 1096.4 hPa | - | - | - | - |
| 1777544551 | 5° C | 9% | 1096.2 hPa | - | - | - | - |
| 1777543651 | 5° C | 9% | 1096.1 hPa | - | - | - | - |
| 1777541852 | 5° C | 9% | 1096.1 hPa | - | - | - | - |
| 1777540952 | 5° C | 9% | 1096 hPa | - | - | - | - |
| 1777540052 | 5.56° C | 9% | 1095.9 hPa | - | - | - | - |
| 1777538252 | 5.56° C | 8% | 1096 hPa | - | - | - | - |
| 1777537352 | 5.56° C | 9% | 1095.9 hPa | - | - | - | - |
| 1777536452 | 5.56° C | 9% | 1095.9 hPa | - | - | - | - |
| 1777534651 | 6.11° C | 9% | 1096.1 hPa | - | - | - | - |
| 1777532851 | 6.11° C | 8% | 1096.2 hPa | - | - | - | - |
| 1777531951 | 6.11° C | 9% | 1096.2 hPa | - | - | - | - |
| 1777531051 | 6.11° C | 9% | 1096.3 hPa | - | - | - | - |
| 1777530151 | 6.11° C | 9% | 1096.4 hPa | - | - | - | - |
| 1777529251 | 6.11° C | 10% | 1096.3 hPa | - | - | - | - |
| 1777528351 | 6.67° C | 10% | 1096.5 hPa | - | - | - | - |
| 1777527451 | 6.11° C | 11% | 1096.6 hPa | - | - | - | - |
| 1777526551 | 6.67° C | 12% | 1096.7 hPa | - | - | - | - |
| 1777525650 | 6.67° C | 12% | 1096.8 hPa | - | - | - | - |
| 1777524750 | 6.67° C | 12% | 1096.9 hPa | - | - | - | - |
| 1777523850 | 6.67° C | 13% | 1097 hPa | - | - | - | - |
* Rain since midnight (hover to see other rain measurements)
** Current wind speed in m/s (hover to see current wind gust speed)